Time;durP1;ratioP1;P1;durP2;ratioP2;P2;SDS_P1;SDS_P2;PMS_P1;PMS_P2;Temp;Humidity;BMP_temperature;BMP_pressure;BME280_temperature;BME280_humidity;BME280_pressure;Samples;Min_cycle;Max_cycle;Signal;HPM_P1;HPM_P2
2021/06/05 00:02:24;;;;;;;5.38;4.38;;;;;;;11.78;76.59;97171.66;5074732;28;20032;-56
2021/06/05 00:04:57;;;;;;;9.15;3.72;;;;;;;11.78;76.51;97179.53;5074716;28;20107;-56
2021/06/05 00:07:23;;;;;;;7.45;3.75;;;;;;;11.71;76.57;97173.66;5074738;28;20466;-55
2021/06/05 00:09:49;;;;;;;4.57;3.30;;;;;;;11.75;75.76;97181.34;5074606;28;20390;-59
2021/06/05 00:12:18;;;;;;;7.05;3.60;;;;;;;11.74;75.63;97182.25;5074522;28;20025;-55
2021/06/05 00:14:44;;;;;;;6.07;3.13;;;;;;;11.76;75.28;97179.56;5074441;28;20040;-56
2021/06/05 00:17:11;;;;;;;6.85;3.15;;;;;;;11.73;74.96;97174.44;5074175;28;20616;-59
2021/06/05 00:19:36;;;;;;;4.15;3.20;;;;;;;11.72;74.91;97175.34;5074256;28;20025;-58
2021/06/05 00:22:03;;;;;;;8.77;2.83;;;;;;;11.71;74.60;97173.66;5074378;28;20040;-55
2021/06/05 00:24:28;;;;;;;10.20;3.63;;;;;;;11.68;73.94;97171.97;5074290;28;20016;-56
2021/06/05 00:26:54;;;;;;;10.00;3.78;;;;;;;11.60;74.65;97171.34;5074291;28;20028;-57
2021/06/05 00:29:20;;;;;;;13.95;3.38;;;;;;;11.50;74.59;97162.94;5074079;28;20413;-56
2021/06/05 00:31:47;;;;;;;5.45;2.92;;;;;;;11.43;74.56;97167.50;5074008;28;20020;-59
2021/06/05 00:34:13;;;;;;;9.23;3.30;;;;;;;11.41;74.55;97161.44;5074053;28;20016;-54
2021/06/05 00:36:39;;;;;;;14.60;4.20;;;;;;;11.36;74.74;97166.00;5074052;28;20074;-57
2021/06/05 00:39:06;;;;;;;11.43;3.65;;;;;;;11.28;74.68;97160.13;5072902;28;20072;-54
2021/06/05 00:41:32;;;;;;;6.57;3.38;;;;;;;11.20;74.74;97166.44;5073924;28;20024;-55
2021/06/05 00:44:03;;;;;;;5.10;3.88;;;;;;;11.15;75.15;97167.50;5073964;28;20086;-54
2021/06/05 00:46:30;;;;;;;6.95;3.60;;;;;;;11.07;75.48;97165.09;5073912;28;20108;-53
2021/06/05 00:48:57;;;;;;;6.82;3.33;;;;;;;11.04;75.36;97158.22;5073825;28;20086;-56
2021/06/05 00:51:28;;;;;;;11.52;4.43;;;;;;;11.04;75.10;97160.84;5073749;28;20023;-55
2021/06/05 00:53:54;;;;;;;12.32;3.50;;;;;;;11.01;75.16;97163.53;5073720;28;20028;-58
2021/06/05 00:56:20;;;;;;;12.55;2.92;;;;;;;11.03;74.37;97153.03;5073577;28;20035;-56
2021/06/05 00:58:46;;;;;;;10.25;3.95;;;;;;;10.91;75.76;97149.88;5073438;28;20063;-56
2021/06/05 01:01:16;;;;;;;5.05;3.58;;;;;;;10.78;75.49;97148.53;5072271;28;20386;-56
2021/06/05 01:03:41;;;;;;;7.93;3.70;;;;;;;10.74;75.46;97151.22;5073572;28;20020;-53
2021/06/05 01:06:15;;;;;;;17.63;4.22;;;;;;;10.73;75.38;97156.50;5073413;28;20040;-56
2021/06/05 01:08:57;;;;;;;14.68;4.03;;;;;;;10.71;75.69;97158.28;5073399;28;20505;-55
2021/06/05 01:11:32;;;;;;;7.10;4.28;;;;;;;10.64;75.29;97152.38;5073410;28;20025;-58
2021/06/05 01:14:06;;;;;;;10.65;4.07;;;;;;;10.64;75.27;97155.00;5073434;28;20107;-56
2021/06/05 01:16:34;;;;;;;4.72;3.70;;;;;;;10.66;75.80;97154.97;5073400;28;20029;-57
2021/06/05 01:19:08;;;;;;;20.05;4.50;;;;;;;10.66;75.52;97147.97;5073336;28;20525;-58
2021/06/05 01:21:49;;;;;;;10.98;4.72;;;;;;;10.63;75.19;97153.31;5073509;28;20086;-56
2021/06/05 01:24:39;;;;;;;15.18;4.25;;;;;;;10.45;75.61;97146.78;5073208;28;20023;-54
2021/06/05 01:27:16;;;;;;;10.88;4.70;;;;;;;10.42;75.29;97142.47;5073389;28;20029;-56
2021/06/05 01:29:46;;;;;;;9.48;3.90;;;;;;;10.44;75.39;97147.66;5073237;28;20031;-57
2021/06/05 01:32:15;;;;;;;10.25;3.97;;;;;;;10.41;75.41;97148.63;5073147;28;20056;-59
2021/06/05 01:34:45;;;;;;;8.38;4.10;;;;;;;10.32;75.45;97146.25;5073149;28;20039;-57
2021/06/05 01:37:15;;;;;;;11.98;4.70;;;;;;;10.27;76.26;97141.19;5073062;28;20429;-55
2021/06/05 01:39:43;;;;;;;7.65;5.07;;;;;;;10.19;75.47;97146.59;5073153;28;20041;-56
2021/06/05 01:42:14;;;;;;;17.30;5.20;;;;;;;10.22;75.90;97149.13;5073037;28;20024;-57
2021/06/05 01:44:43;;;;;;;8.50;4.75;;;;;;;10.16;75.42;97145.81;5073085;28;20055;-55
2021/06/05 01:47:11;;;;;;;10.95;4.20;;;;;;;10.07;75.75;97144.31;5073051;28;20021;-59
2021/06/05 01:49:36;;;;;;;7.30;4.47;;;;;;;10.09;76.10;97142.53;5073085;28;20020;-56
2021/06/05 01:52:07;;;;;;;5.32;4.10;;;;;;;10.07;75.94;97141.69;5079333;28;20025;-57
2021/06/05 01:54:43;;;;;;;17.95;4.25;;;;;;;10.03;75.54;97137.44;5079571;28;20028;-52
2021/06/05 01:57:13;;;;;;;9.13;5.07;;;;;;;9.99;76.02;97136.66;5079521;28;20043;-59
2021/06/05 01:59:39;;;;;;;15.57;4.50;;;;;;;9.94;76.03;97136.78;5079602;28;20056;-58
2021/06/05 02:02:06;;;;;;;5.68;4.57;;;;;;;9.83;76.21;97137.06;5079723;28;20110;-55
2021/06/05 02:04:32;;;;;;;8.38;5.40;;;;;;;9.76;77.06;97130.28;5079542;28;20091;-55
2021/06/05 02:06:58;;;;;;;7.95;5.53;;;;;;;9.78;76.93;97138.09;5079427;28;20017;-56
2021/06/05 02:09:26;;;;;;;11.13;5.30;;;;;;;9.83;76.96;97136.22;5079414;28;20017;-55
2021/06/05 02:12:00;;;;;;;10.18;4.90;;;;;;;9.71;76.93;97133.00;5079412;28;20031;-54
2021/06/05 02:14:31;;;;;;;9.38;4.85;;;;;;;9.70;77.62;97138.28;5079525;28;20032;-57
2021/06/05 02:16:57;;;;;;;14.20;5.45;;;;;;;9.71;77.18;97134.75;5079457;28;20051;-58
2021/06/05 02:19:31;;;;;;;11.07;5.25;;;;;;;9.65;76.92;97130.56;5079341;28;20039;-58
2021/06/05 02:22:00;;;;;;;8.75;4.10;;;;;;;9.64;77.37;97123.63;5079442;28;20070;-54
2021/06/05 02:24:43;;;;;;;9.27;5.68;;;;;;;9.63;77.57;97129.72;5079390;28;20016;-58
2021/06/05 02:27:11;;;;;;;6.25;4.97;;;;;;;9.54;77.74;97129.97;5079391;28;20020;-56
2021/06/05 02:29:40;;;;;;;12.57;5.60;;;;;;;9.60;77.92;97127.19;5079354;28;20031;-56
2021/06/05 02:32:08;;;;;;;9.23;4.82;;;;;;;9.56;77.52;97125.53;5079159;28;20375;-54
2021/06/05 02:34:35;;;;;;;8.07;5.43;;;;;;;9.49;77.69;97130.06;5079194;28;20052;-52
2021/06/05 02:37:06;;;;;;;11.35;4.70;;;;;;;9.51;77.18;97130.03;5079085;28;20028;-58
2021/06/05 02:39:32;;;;;;;11.85;5.63;;;;;;;9.53;77.72;97123.00;5079002;28;20076;-56
2021/06/05 02:41:58;;;;;;;10.57;4.90;;;;;;;9.57;77.59;97128.13;5079128;28;20067;-54
2021/06/05 02:44:29;;;;;;;6.85;4.97;;;;;;;9.61;77.52;97121.91;5079056;28;20067;-56
2021/06/05 02:46:57;;;;;;;8.93;5.07;;;;;;;9.63;77.71;97123.66;5079286;28;20056;-58
2021/06/05 02:49:31;;;;;;;12.18;5.20;;;;;;;9.63;77.45;97124.50;5079046;28;20020;-56
2021/06/05 02:52:31;;;;;;;7.85;5.32;;;;;;;9.68;78.39;97127.88;5079195;28;20024;-58
2021/06/05 02:55:04;;;;;;;16.10;5.07;;;;;;;9.68;77.62;97133.09;5075854;28;20406;-55
2021/06/05 02:57:30;;;;;;;10.70;5.05;;;;;;;9.75;77.42;97125.94;5079001;28;20311;-56
2021/06/05 02:59:57;;;;;;;5.68;5.07;;;;;;;9.75;77.54;97128.56;5079106;28;20024;-51
2021/06/05 03:02:22;;;;;;;8.10;5.65;;;;;;;9.80;77.41;97137.16;5076458;28;20029;-54
2021/06/05 03:04:48;;;;;;;6.32;5.10;;;;;;;9.84;77.53;97119.63;5075731;28;20024;-54
2021/06/05 03:07:14;;;;;;;5.53;4.95;;;;;;;9.86;77.01;97126.53;5075806;28;20151;-55
2021/06/05 03:09:40;;;;;;;6.20;4.82;;;;;;;9.86;77.03;97126.53;5075644;28;20013;-55
2021/06/05 03:12:11;;;;;;;6.28;5.68;;;;;;;9.83;77.46;97121.41;5075716;28;20436;-56
2021/06/05 03:14:39;;;;;;;11.32;4.82;;;;;;;9.86;77.47;97129.16;5075683;28;20036;-57
2021/06/05 03:17:06;;;;;;;6.80;4.53;;;;;;;9.93;77.52;97127.22;5074298;28;20028;-57
2021/06/05 03:19:32;;;;;;;5.78;4.60;;;;;;;9.97;77.57;97134.09;5075521;28;20385;-54
2021/06/05 03:21:58;;;;;;;7.90;5.20;;;;;;;10.02;77.62;97125.28;5075483;28;20046;-56
2021/06/05 03:24:23;;;;;;;10.85;5.28;;;;;;;10.08;77.69;97125.97;5075492;28;20460;-52
2021/06/05 03:26:50;;;;;;;6.63;4.13;;;;;;;10.28;76.92;97121.97;5075419;28;20551;-59
2021/06/05 03:29:15;;;;;;;12.60;4.28;;;;;;;10.65;76.26;97134.94;5075365;28;20113;-57
2021/06/05 03:31:41;;;;;;;4.15;3.75;;;;;;;11.06;74.69;97129.38;5075278;28;20120;-55
2021/06/05 03:34:07;;;;;;;15.45;4.80;;;;;;;11.54;73.00;97125.25;5075178;28;20023;-56
2021/06/05 03:36:32;;;;;;;6.15;3.92;;;;;;;11.98;72.20;97124.66;5075138;28;20441;-57
2021/06/05 03:38:59;;;;;;;7.78;3.40;;;;;;;12.41;70.98;97123.22;5075037;28;20487;-55
2021/06/05 03:41:24;;;;;;;3.65;3.17;;;;;;;12.89;70.24;97131.97;5075154;28;20028;-58
2021/06/05 03:43:50;;;;;;;5.55;3.20;;;;;;;13.39;69.31;97132.69;5075060;28;20024;-53
2021/06/05 03:46:16;;;;;;;6.25;3.08;;;;;;;13.80;67.29;97121.44;5075178;28;20112;-58
2021/06/05 03:48:41;;;;;;;7.30;2.42;;;;;;;14.28;65.02;97132.56;5073820;28;20370;-58
2021/06/05 03:51:09;;;;;;;6.32;2.28;;;;;;;14.65;64.34;97135.34;5074923;28;20534;-55
2021/06/05 03:53:35;;;;;;;11.15;2.95;;;;;;;14.99;63.69;97132.94;5074896;28;20047;-59
2021/06/05 03:56:01;;;;;;;2.67;2.47;;;;;;;15.33;62.92;97130.50;5074641;28;20021;-53
2021/06/05 03:58:40;;;;;;;3.28;2.97;;;;;;;15.70;62.57;97125.22;5074947;28;20078;-55
2021/06/05 04:01:08;;;;;;;6.78;2.75;;;;;;;16.11;61.31;97133.81;5074830;28;20028;-55
2021/06/05 04:03:34;;;;;;;5.50;3.10;;;;;;;16.46;60.54;97122.34;5074672;28;20025;-58
2021/06/05 04:06:00;;;;;;;3.80;2.70;;;;;;;16.77;59.96;97124.19;5074648;28;20027;-52
2021/06/05 04:08:25;;;;;;;4.38;3.30;;;;;;;17.14;59.00;97131.06;5074476;28;20025;-54
2021/06/05 04:10:51;;;;;;;3.60;2.90;;;;;;;17.36;59.02;97127.22;5074631;28;20062;-55
2021/06/05 04:13:17;;;;;;;3.80;2.78;;;;;;;17.65;58.76;97120.28;5074427;28;20079;-58
2021/06/05 04:15:43;;;;;;;6.28;2.85;;;;;;;17.96;58.76;97125.56;5074452;28;20032;-54
2021/06/05 04:18:12;;;;;;;3.28;2.80;;;;;;;18.32;57.74;97131.44;5074272;28;20032;-58
2021/06/05 04:20:39;;;;;;;7.07;2.90;;;;;;;18.61;57.52;97136.78;5074256;28;20055;-58
2021/06/05 04:23:06;;;;;;;5.45;2.85;;;;;;;18.94;56.29;97132.97;5074326;28;20036;-59
2021/06/05 04:25:32;;;;;;;3.50;2.78;;;;;;;19.23;56.31;97132.09;5074251;28;20390;-52
2021/06/05 04:27:58;;;;;;;7.07;2.35;;;;;;;19.49;56.14;97128.72;5074207;28;20031;-57
2021/06/05 04:30:27;;;;;;;2.85;2.40;;;;;;;19.79;54.72;97125.84;5074078;28;20020;-59
2021/06/05 04:32:53;;;;;;;2.88;2.40;;;;;;;20.02;54.62;97125.31;5074172;28;20043;-59
2021/06/05 04:35:20;;;;;;;6.25;2.28;;;;;;;20.24;54.31;97131.81;5074258;28;20025;-55
2021/06/05 04:37:46;;;;;;;4.20;3.00;;;;;;;20.30;54.18;97132.25;5073683;28;20124;-56
2021/06/05 04:40:13;;;;;;;6.00;2.90;;;;;;;20.53;54.27;97137.75;5074031;28;20052;-58
2021/06/05 04:42:39;;;;;;;5.95;2.50;;;;;;;20.75;53.94;97138.06;5073821;28;20024;-59
2021/06/05 04:45:06;;;;;;;4.40;2.70;;;;;;;20.98;53.20;97132.97;5073846;28;20024;-58
2021/06/05 04:47:32;;;;;;;5.80;2.60;;;;;;;21.00;52.07;97131.91;5073873;28;20031;-54
2021/06/05 04:49:58;;;;;;;3.40;2.72;;;;;;;20.78;53.23;97127.22;5073754;28;20111;-56
2021/06/05 04:52:24;;;;;;;3.65;3.30;;;;;;;20.76;54.43;97126.47;5073824;28;20020;-56
2021/06/05 04:54:51;;;;;;;5.38;2.80;;;;;;;20.96;53.06;97122.44;5073597;28;20028;-56
2021/06/05 04:57:17;;;;;;;6.05;2.75;;;;;;;21.10;53.70;97124.09;5073525;28;20086;-55
2021/06/05 04:59:43;;;;;;;2.80;2.60;;;;;;;21.18;54.06;97120.91;5073714;28;20039;-55
2021/06/05 05:02:09;;;;;;;8.70;2.30;;;;;;;21.21;54.89;97128.66;5073585;28;20016;-56
2021/06/05 05:04:35;;;;;;;5.53;2.88;;;;;;;21.48;54.46;97121.44;5073494;28;20024;-56
2021/06/05 05:07:01;;;;;;;3.47;2.33;;;;;;;21.78;54.82;97126.34;5073466;28;20032;-59
2021/06/05 05:09:27;;;;;;;3.28;2.85;;;;;;;22.01;53.27;97122.91;5073425;28;20031;-54
2021/06/05 05:11:52;;;;;;;3.40;2.38;;;;;;;22.30;53.73;97110.00;5073515;28;20024;-56
2021/06/05 05:14:18;;;;;;;7.80;2.90;;;;;;;22.68;51.66;97118.69;5073406;28;20027;-53
2021/06/05 05:16:44;;;;;;;3.08;2.60;;;;;;;22.94;51.11;97113.09;5073212;28;20020;-59
2021/06/05 05:19:10;;;;;;;5.40;2.45;;;;;;;23.21;49.86;97119.03;5073313;28;20051;-56
2021/06/05 05:21:35;;;;;;;3.03;2.30;;;;;;;23.50;50.75;97123.81;5073411;28;20048;-61
2021/06/05 05:24:01;;;;;;;4.82;2.38;;;;;;;23.78;50.20;97108.19;5073320;28;20048;-60
2021/06/05 05:26:27;;;;;;;3.70;2.88;;;;;;;23.97;47.78;97110.19;5072772;28;20478;-57
2021/06/05 05:28:54;;;;;;;6.10;2.28;;;;;;;24.09;48.54;97110.97;5073216;28;20113;-57
2021/06/05 05:31:22;;;;;;;4.13;2.08;;;;;;;24.28;47.64;97117.44;5073176;28;20024;-56
2021/06/05 05:33:48;;;;;;;6.50;2.50;;;;;;;24.38;47.97;97114.00;5073090;28;20031;-55
2021/06/05 05:36:29;;;;;;;2.75;2.35;;;;;;;24.63;48.59;97107.38;5073191;28;20052;-56
2021/06/05 05:38:55;;;;;;;3.05;2.10;;;;;;;24.89;45.61;97116.81;5073016;28;20041;-57
2021/06/05 05:41:23;;;;;;;5.53;2.45;;;;;;;25.16;48.06;97120.69;5073182;28;20074;-53
2021/06/05 05:43:50;;;;;;;2.20;1.95;;;;;;;25.43;48.31;97119.22;5073093;28;20044;-62
2021/06/05 05:46:16;;;;;;;3.05;2.33;;;;;;;25.53;47.81;97117.38;5072991;28;20095;-62
2021/06/05 05:48:42;;;;;;;3.42;2.38;;;;;;;25.48;45.86;97116.94;5073013;28;20398;-59
2021/06/05 05:51:12;;;;;;;6.22;2.60;;;;;;;25.64;46.59;97111.06;5073045;28;20021;-60
2021/06/05 05:53:40;;;;;;;3.83;2.60;;;;;;;25.93;45.45;97115.59;5073105;28;20024;-59
2021/06/05 05:56:08;;;;;;;2.75;2.47;;;;;;;26.16;46.04;97101.91;5072787;28;20474;-55
2021/06/05 05:58:40;;;;;;;3.20;2.50;;;;;;;26.34;44.38;97104.69;5072992;28;20020;-55
2021/06/05 06:01:08;;;;;;;6.65;2.63;;;;;;;26.32;43.35;97111.19;5072875;28;20028;-54
2021/06/05 06:03:34;;;;;;;4.10;2.22;;;;;;;26.39;45.49;97109.63;5072938;28;20386;-54
2021/06/05 06:06:00;;;;;;;3.30;2.25;;;;;;;26.52;43.91;97098.59;5073004;28;20107;-60
2021/06/05 06:08:27;;;;;;;3.35;2.15;;;;;;;26.66;43.76;97108.00;5072853;28;20072;-61
2021/06/05 06:10:53;;;;;;;8.20;2.42;;;;;;;26.70;43.94;97095.97;5072797;28;20077;-57
2021/06/05 06:13:19;;;;;;;6.57;2.40;;;;;;;26.82;41.68;97103.84;5072724;28;20020;-57
2021/06/05 06:15:45;;;;;;;5.18;2.30;;;;;;;27.02;42.29;97101.94;5072869;28;20078;-62
2021/06/05 06:18:12;;;;;;;5.57;3.03;;;;;;;27.31;43.40;97105.47;5072811;28;20466;-63
2021/06/05 06:20:51;;;;;;;2.72;2.28;;;;;;;27.35;42.63;97104.16;5072621;28;20028;-61
2021/06/05 06:23:29;;;;;;;6.78;2.60;;;;;;;27.44;42.62;97105.94;5072813;28;20020;-59
2021/06/05 06:25:58;;;;;;;3.30;2.05;;;;;;;27.63;42.15;97101.41;5072797;28;20037;-56
2021/06/05 06:28:31;;;;;;;2.47;2.20;;;;;;;27.86;43.06;97090.22;5072745;28;20025;-56
2021/06/05 06:30:58;;;;;;;6.35;2.30;;;;;;;28.03;40.25;97088.53;5072766;28;20082;-60
2021/06/05 06:33:24;;;;;;;3.60;2.38;;;;;;;28.25;40.50;97089.03;5072410;28;20050;-62
2021/06/05 06:35:51;;;;;;;4.30;2.22;;;;;;;28.37;40.21;97079.72;5072678;28;20028;-61
2021/06/05 06:38:22;;;;;;;3.17;2.05;;;;;;;28.36;38.90;97078.03;5074419;28;20147;-57
2021/06/05 06:40:48;;;;;;;5.53;2.08;;;;;;;28.42;39.09;97079.25;5076277;28;20028;-59
2021/06/05 06:43:18;;;;;;;3.25;2.00;;;;;;;28.37;38.79;97073.50;5076247;28;20029;-63
2021/06/05 06:45:44;;;;;;;4.63;2.13;;;;;;;28.53;39.54;97077.31;5076311;28;20074;-59
2021/06/05 06:48:11;;;;;;;5.82;2.50;;;;;;;28.58;39.15;97073.13;5076153;28;20034;-55
2021/06/05 06:50:36;;;;;;;3.53;2.40;;;;;;;28.57;38.02;97073.28;5076184;28;20075;-59
2021/06/05 06:53:03;;;;;;;6.95;2.17;;;;;;;28.44;36.92;97063.78;5076145;28;20395;-59
2021/06/05 06:55:29;;;;;;;4.13;2.00;;;;;;;28.64;37.18;97071.63;5076121;28;20509;-58
2021/06/05 06:57:55;;;;;;;3.30;1.90;;;;;;;28.84;37.34;97061.44;5075815;28;20052;-59
2021/06/05 07:00:30;;;;;;;6.07;2.45;;;;;;;28.68;34.07;97058.72;5075927;28;20032;-60
2021/06/05 07:02:56;;;;;;;2.10;1.90;;;;;;;28.81;34.23;97058.25;5075939;28;20484;-56
2021/06/05 07:05:22;;;;;;;2.60;1.95;;;;;;;28.67;35.13;97055.16;5075826;28;20020;-62
2021/06/05 07:07:48;;;;;;;6.53;2.40;;;;;;;28.74;34.83;97049.97;5075768;28;20034;-54
2021/06/05 07:10:17;;;;;;;6.20;2.10;;;;;;;28.71;36.33;97048.44;5075740;28;20016;-60
2021/06/05 07:12:42;;;;;;;2.15;1.95;;;;;;;28.53;32.45;97053.09;5075796;28;20024;-58
2021/06/05 07:15:09;;;;;;;6.22;2.20;;;;;;;28.10;32.48;97053.78;5075780;28;20147;-51
2021/06/05 07:17:35;;;;;;;4.90;2.00;;;;;;;27.89;27.80;97055.00;5075819;28;20126;-60
2021/06/05 07:20:01;;;;;;;8.35;1.60;;;;;;;27.67;31.54;97042.88;5075650;28;20020;-59
2021/06/05 07:22:27;;;;;;;3.20;1.67;;;;;;;27.32;29.15;97056.97;5075743;28;20025;-58
2021/06/05 07:24:52;;;;;;;3.88;1.73;;;;;;;27.34;31.80;97046.94;5075448;28;20032;-61
2021/06/05 07:27:18;;;;;;;5.05;1.95;;;;;;;27.30;35.38;97052.75;5075510;28;20024;-59
2021/06/05 07:29:44;;;;;;;4.18;1.88;;;;;;;27.38;32.69;97050.16;5075413;28;20023;-57
2021/06/05 07:32:10;;;;;;;3.03;1.70;;;;;;;26.88;29.77;97044.25;5075581;28;20047;-59
2021/06/05 07:34:36;;;;;;;5.85;1.98;;;;;;;26.47;33.26;97057.97;5075377;28;20509;-61
2021/06/05 07:37:07;;;;;;;3.45;1.67;;;;;;;26.48;30.75;97052.44;5075261;28;20028;-53
2021/06/05 07:39:33;;;;;;;3.42;1.90;;;;;;;26.34;32.44;97053.75;5075045;28;20041;-57
2021/06/05 07:42:00;;;;;;;9.25;2.35;;;;;;;26.10;32.88;97048.88;5073871;28;20048;-58
2021/06/05 07:44:28;;;;;;;5.82;2.83;;;;;;;25.98;32.48;97045.50;5075070;28;20017;-53
2021/06/05 07:46:57;;;;;;;3.63;1.95;;;;;;;25.91;31.07;97047.91;5075012;28;20090;-54
2021/06/05 07:49:26;;;;;;;8.38;1.75;;;;;;;25.69;30.64;97041.88;5074431;28;20103;-61
2021/06/05 07:51:52;;;;;;;8.63;1.83;;;;;;;25.96;34.08;97034.94;5074908;28;20115;-60
2021/06/05 07:54:19;;;;;;;4.55;1.88;;;;;;;25.91;29.00;97031.81;5074831;28;20056;-60
2021/06/05 07:56:49;;;;;;;6.03;1.60;;;;;;;26.23;31.06;97044.03;5074668;28;20024;-60
2021/06/05 07:59:18;;;;;;;5.55;1.90;;;;;;;26.71;32.50;97046.72;5074875;28;20032;-56
2021/06/05 08:01:44;;;;;;;2.63;2.03;;;;;;;26.70;30.65;97036.97;5074717;28;20064;-60
2021/06/05 08:04:10;;;;;;;4.10;1.95;;;;;;;26.91;32.91;97033.19;5074802;28;20059;-57
2021/06/05 08:06:35;;;;;;;4.47;1.83;;;;;;;26.40;29.89;97047.00;5074589;28;20016;-59
2021/06/05 08:09:01;;;;;;;3.92;2.00;;;;;;;26.19;29.32;97050.66;5074695;28;20443;-55
2021/06/05 08:11:27;;;;;;;3.03;1.75;;;;;;;26.15;29.67;97037.72;5074536;28;20024;-58
2021/06/05 08:13:52;;;;;;;2.67;1.75;;;;;;;26.07;28.73;97030.41;5074477;28;20086;-59
2021/06/05 08:16:18;;;;;;;8.18;2.05;;;;;;;26.27;31.07;97033.84;5074342;28;20028;-58
2021/06/05 08:18:44;;;;;;;3.90;1.60;;;;;;;26.49;31.41;97043.41;5074531;28;20474;-51
2021/06/05 08:21:15;;;;;;;8.07;1.88;;;;;;;26.68;31.93;97038.09;5074338;28;20025;-61
2021/06/05 08:23:42;;;;;;;7.30;2.05;;;;;;;26.52;29.95;97028.03;5074458;28;20024;-59
2021/06/05 08:26:09;;;;;;;6.65;1.70;;;;;;;26.56;31.29;97026.72;5074277;28;20031;-54
2021/06/05 08:28:36;;;;;;;3.50;2.13;;;;;;;26.67;31.48;97031.06;5073994;28;20077;-56
2021/06/05 08:31:05;;;;;;;4.28;1.60;;;;;;;26.66;32.13;97035.56;5074088;28;20040;-62
2021/06/05 08:33:31;;;;;;;6.65;2.08;;;;;;;26.93;31.00;97028.50;5074020;28;20159;-58
2021/06/05 08:35:57;;;;;;;6.85;1.95;;;;;;;27.31;31.74;97032.97;5074086;28;20031;-55
2021/06/05 08:38:26;;;;;;;3.00;1.67;;;;;;;27.59;31.99;97030.19;5073664;28;20044;-59
2021/06/05 08:40:55;;;;;;;6.43;2.17;;;;;;;27.82;30.78;97029.75;5073963;28;20059;-54
2021/06/05 08:43:47;;;;;;;6.45;1.90;;;;;;;27.80;29.79;97023.66;5074139;28;20036;-58
2021/06/05 08:46:17;;;;;;;7.50;1.67;;;;;;;27.82;30.04;97011.78;5067438;28;20404;-54
2021/06/05 08:48:42;;;;;;;2.42;1.60;;;;;;;28.05;30.21;97019.31;5073882;28;20017;-56
2021/06/05 08:51:43;;;;;;;3.95;1.95;;;;;;;28.06;31.02;97015.66;5073809;28;20044;-59
2021/06/05 08:54:32;;;;;;;;;;;;;;;27.95;31.07;97013.19;5050614;28;20055;-61
2021/06/05 08:57:20;;;;;;;2.78;1.80;;;;;;;27.93;29.04;97012.53;5068117;28;19923;-57
2021/06/05 08:59:46;;;;;;;2.45;1.90;;;;;;;27.99;29.14;97011.91;5062531;28;20036;-55
2021/06/05 09:02:13;;;;;;;6.57;2.00;;;;;;;27.67;30.64;97013.34;5073352;28;20031;-62
2021/06/05 09:04:40;;;;;;;4.88;2.30;;;;;;;27.37;30.40;97000.13;5088898;28;20020;-62
2021/06/05 09:07:14;;;;;;;4.65;2.00;;;;;;;27.17;31.71;97004.78;5079818;28;20060;-62
2021/06/05 09:09:46;;;;;;;3.50;1.70;;;;;;;27.15;30.34;97004.94;5075470;28;20030;-61
2021/06/05 09:12:13;;;;;;;4.30;1.80;;;;;;;26.67;29.85;96990.84;5075942;28;20033;-62
2021/06/05 09:14:40;;;;;;;2.63;1.70;;;;;;;26.13;32.36;96994.97;5073288;28;20021;-61
2021/06/05 09:17:51;;;;;;;4.38;1.83;;;;;;;25.98;33.21;96998.09;5072108;28;20052;-61
2021/06/05 09:20:45;;;;;;;3.13;2.10;;;;;;;25.96;33.24;96999.25;5073243;28;20029;-62
2021/06/05 09:23:33;;;;;;;4.20;1.70;;;;;;;26.03;33.51;96996.84;5080974;28;20031;-62
2021/06/05 09:26:23;;;;;;;3.28;1.60;;;;;;;26.06;30.51;97005.41;5093560;28;20028;-61
2021/06/05 09:29:06;;;;;;;4.65;1.92;;;;;;;26.52;30.67;96994.00;5093499;28;20039;-62
2021/06/05 09:31:32;;;;;;;4.35;2.13;;;;;;;26.90;34.66;96993.94;5091168;28;20019;-61
2021/06/05 09:33:57;;;;;;;5.95;2.03;;;;;;;26.83;33.75;96993.72;5093362;28;20020;-62
2021/06/05 09:36:31;;;;;;;5.78;2.13;;;;;;;26.28;33.40;96987.31;5089949;28;20416;-62
2021/06/05 09:39:07;;;;;;;7.45;1.88;;;;;;;26.01;35.26;96990.78;5072919;28;20047;-62
2021/06/05 09:41:38;;;;;;;2.70;2.15;;;;;;;26.02;32.78;96987.94;5087134;28;20040;-62
2021/06/05 09:44:42;;;;;;;5.05;2.10;;;;;;;25.86;34.99;96978.66;5093087;28;20473;-62
2021/06/05 09:47:16;;;;;;;8.55;2.28;;;;;;;25.76;34.96;96982.38;5090368;28;20138;-62
2021/06/05 09:49:50;;;;;;;6.82;2.38;;;;;;;25.18;35.05;96976.88;5087607;28;20032;-62
2021/06/05 09:52:24;;;;;;;3.97;2.15;;;;;;;25.00;37.65;96974.91;5082295;28;20039;-62
2021/06/05 09:54:57;;;;;;;2.65;2.05;;;;;;;25.03;37.29;96974.63;5072550;28;20028;-62
2021/06/05 09:57:29;;;;;;;2.88;2.10;;;;;;;25.04;37.24;96972.78;5087596;28;20043;-62
2021/06/05 10:00:13;;;;;;;2.42;2.10;;;;;;;25.04;38.51;96972.78;5092979;28;20020;-62
2021/06/05 10:02:48;;;;;;;5.47;2.20;;;;;;;25.30;40.25;96974.91;5092997;28;20031;-62
2021/06/05 10:05:29;;;;;;;4.45;2.10;;;;;;;25.90;36.96;96973.88;5093054;28;20478;-61
2021/06/05 10:08:00;;;;;;;3.13;2.28;;;;;;;26.59;35.80;96976.34;5090309;28;20060;-62
2021/06/05 10:10:40;;;;;;;7.72;2.35;;;;;;;26.62;36.31;96973.34;5085681;28;20021;-62
2021/06/05 10:13:33;;;;;;;4.90;1.77;;;;;;;26.46;35.11;96976.66;5076437;28;20498;-62
2021/06/05 10:16:09;;;;;;;4.40;2.28;;;;;;;26.28;34.61;96979.28;5078002;28;20640;-62
2021/06/05 10:18:53;;;;;;;4.00;2.30;;;;;;;25.98;33.84;96971.31;5096982;28;20028;-62
2021/06/05 10:21:38;;;;;;;5.85;2.25;;;;;;;25.46;35.45;96975.19;5096922;28;20024;-61
2021/06/05 10:24:31;;;;;;;5.55;2.42;;;;;;;24.59;37.18;96966.91;5094510;28;20482;-61
2021/06/05 10:27:01;;;;;;;6.88;2.53;;;;;;;24.34;38.20;96967.25;5095237;28;20385;-62
2021/06/05 10:29:33;;;;;;;4.68;2.88;;;;;;;24.68;38.89;96970.59;5077858;28;20059;-62
2021/06/05 10:32:04;;;;;;;8.07;2.58;;;;;;;24.52;36.97;96965.75;5096763;28;20505;-62
2021/06/05 10:34:39;;;;;;;5.80;2.72;;;;;;;24.48;38.97;96958.00;5096711;28;20053;-61
2021/06/05 10:37:08;;;;;;;6.30;2.55;;;;;;;24.58;37.24;96963.38;5090895;28;20099;-61
2021/06/05 10:39:37;;;;;;;6.78;2.40;;;;;;;24.38;36.24;96959.78;5076079;28;20044;-62
2021/06/05 10:42:21;;;;;;;6.78;2.85;;;;;;;24.39;38.97;96960.66;5077216;28;20035;-61
2021/06/05 10:44:48;;;;;;;6.95;2.67;;;;;;;24.46;39.01;96951.97;5076177;28;20582;-62
2021/06/05 10:47:27;;;;;;;5.20;2.50;;;;;;;24.72;37.84;96947.94;5076360;28;20024;-61
2021/06/05 10:50:11;;;;;;;5.75;2.80;;;;;;;24.84;36.79;96951.34;5075968;28;20107;-62
2021/06/05 10:52:40;;;;;;;6.28;2.50;;;;;;;25.18;38.70;96947.44;5076027;28;20031;-62
2021/06/05 10:55:36;;;;;;;3.78;2.10;;;;;;;25.26;36.86;96950.28;5076761;28;20029;-61
2021/06/05 10:58:08;;;;;;;6.55;2.05;;;;;;;25.07;38.63;96932.38;5071886;28;20059;-61
2021/06/05 11:01:03;;;;;;;4.07;2.60;;;;;;;24.85;36.77;96929.81;5079302;28;20496;-63
2021/06/05 11:03:32;;;;;;;6.55;2.53;;;;;;;24.51;40.13;96907.94;5094730;28;20040;-62
2021/06/05 11:06:03;;;;;;;6.15;2.53;;;;;;;24.63;40.08;96941.59;5078411;28;20052;-61
2021/06/05 11:08:32;;;;;;;2.30;2.10;;;;;;;24.54;40.32;96945.94;5079660;28;20029;-61
2021/06/05 11:11:00;;;;;;;6.90;2.35;;;;;;;24.43;39.93;96938.88;5075947;28;20385;-62
2021/06/05 11:13:34;;;;;;;4.50;2.25;;;;;;;24.32;40.60;96942.47;5095570;28;20485;-61
2021/06/05 11:16:10;;;;;;;4.85;2.70;;;;;;;24.38;41.46;96941.09;5093215;28;20023;-62
2021/06/05 11:18:55;;;;;;;2.88;1.88;;;;;;;24.59;40.48;96937.50;5075358;28;20036;-61
2021/06/05 11:21:24;;;;;;;3.13;2.40;;;;;;;24.48;40.50;96925.09;5081205;28;20032;-62
2021/06/05 11:23:56;;;;;;;2.95;2.65;;;;;;;24.68;38.35;96925.97;5084605;28;20123;-62
2021/06/05 11:26:44;;;;;;;3.20;2.40;;;;;;;24.69;36.67;96922.31;5077400;28;20107;-61
2021/06/05 11:29:19;;;;;;;5.85;2.40;;;;;;;24.54;38.39;96919.19;5074156;28;20434;-61
2021/06/05 11:31:55;;;;;;;5.97;2.30;;;;;;;24.45;41.33;96906.66;5082696;28;20039;-61
2021/06/05 11:34:33;;;;;;;4.05;2.35;;;;;;;24.15;39.67;96919.06;5081970;28;20142;-62
2021/06/05 11:37:03;;;;;;;3.58;2.90;;;;;;;24.05;44.58;96919.84;5086131;28;20432;-62
2021/06/05 11:39:31;;;;;;;6.75;2.90;;;;;;;23.96;44.63;96924.16;5087066;28;20040;-63
2021/06/05 11:42:03;;;;;;;6.47;3.45;;;;;;;24.11;46.49;96931.84;5094639;28;20024;-61
2021/06/05 11:44:39;;;;;;;3.17;2.72;;;;;;;24.19;44.66;96931.19;5087270;28;20028;-61
2021/06/05 11:47:18;;;;;;;4.78;2.60;;;;;;;24.21;44.55;96930.09;5075126;28;20051;-61
2021/06/05 11:49:46;;;;;;;6.03;2.58;;;;;;;24.47;44.80;96924.22;5074953;28;20070;-62